Terminal Aerodrome Forecast
Issued by NWS Billings, MT

Home | Current Version | Previous Version | Text Only | Print | Product List | Glossary Off
Versions: 1 2 3 4 5 6 7 8 9 10 11 12 13 14 15 16 17 18 19 20 21 22 23 24 25 26 27 28

528
FTUS45 KBYZ 172335
TAFMLS
TAF
KMLS 172335Z 1800/1824 18005KT P6SM FEW200
     FM180400 17006KT P6SM SCT150
     FM181500 17009KT P6SM BKN120=

USA.gov is the U.S. government's official web portal to all federal, state and local government web resources and services.